Time;durP1;ratioP1;P1;durP2;ratioP2;P2;SDS_P1;SDS_P2;PMS_P1;PMS_P2;Temp;Humidity;BMP_temperature;BMP_pressure;BME280_temperature;BME280_humidity;BME280_pressure;Samples;Min_cycle;Max_cycle;Signal;HPM_P1;HPM_P2
2022/05/07 00:02:08;;;;;;;18.98;13.55;;;15.70;99.90;;;;;;5054023;28;20034;-78
2022/05/07 00:04:35;;;;;;;17.92;12.68;;;15.90;99.90;;;;;;5053415;28;20084;-78
2022/05/07 00:07:01;;;;;;;22.35;13.32;;;15.70;99.90;;;;;;5053486;28;20061;-78
2022/05/07 00:09:27;;;;;;;23.45;13.65;;;15.50;99.90;;;;;;5053444;28;20541;-77
2022/05/07 00:11:53;;;;;;;24.27;14.00;;;15.50;99.90;;;;;;5035316;28;20057;-78
2022/05/07 00:14:19;;;;;;;18.52;12.93;;;15.50;99.90;;;;;;5053167;28;20032;-77
2022/05/07 00:19:30;;;;;;;22.15;14.23;;;15.80;99.90;;;;;;5053475;28;20504;-78
2022/05/07 00:21:55;;;;;;;20.27;12.70;;;15.40;99.90;;;;;;5053514;28;20037;-78
2022/05/07 00:24:21;;;;;;;20.95;12.32;;;15.40;99.90;;;;;;5053399;28;20064;-78
2022/05/07 00:26:47;;;;;;;19.42;12.82;;;15.40;99.90;;;;;;5053181;28;20037;-77
2022/05/07 00:29:13;;;;;;;22.90;13.52;;;15.60;99.90;;;;;;5035603;28;20017;-77
2022/05/07 00:31:38;;;;;;;17.08;11.38;;;15.70;99.90;;;;;;5053248;28;20040;-77
2022/05/07 00:34:05;;;;;;;17.48;10.93;;;15.60;99.90;;;;;;5035583;28;20032;-78
2022/05/07 00:36:32;;;;;;;15.25;10.82;;;15.80;99.90;;;;;;5053604;28;20021;-77
2022/05/07 00:38:58;;;;;;;21.35;11.48;;;15.50;99.90;;;;;;5034967;28;20033;-77
2022/05/07 00:41:23;;;;;;;18.33;9.80;;;15.40;99.90;;;;;;5035384;28;20032;-78
2022/05/07 00:43:49;;;;;;;13.65;9.77;;;15.40;99.90;;;;;;5053255;28;20029;-77
2022/05/07 00:46:16;;;;;;;24.15;10.32;;;15.60;99.90;;;;;;5034954;28;20489;-75
2022/05/07 00:48:43;;;;;;;16.27;11.18;;;15.50;99.90;;;;;;5035002;28;20037;-74
2022/05/07 00:53:54;;;;;;;18.88;11.15;;;15.60;99.90;;;;;;5034901;28;20552;-75
2022/05/07 00:56:20;;;;;;;16.40;10.90;;;15.50;99.90;;;;;;5052906;28;20056;-74
2022/05/07 00:58:47;;;;;;;22.88;10.90;;;15.40;99.90;;;;;;5051702;28;20376;-74
2022/05/07 01:01:15;;;;;;;18.20;10.68;;;15.70;99.90;;;;;;5034903;28;20515;-76
2022/05/07 01:03:40;;;;;;;21.75;12.20;;;16.10;99.90;;;;;;5051573;28;20021;-78
2022/05/07 01:06:06;;;;;;;17.73;10.43;;;16.20;99.90;;;;;;5034712;28;20033;-78
2022/05/07 01:08:33;;;;;;;19.20;10.82;;;15.70;99.90;;;;;;5018062;28;20508;-78
2022/05/07 01:11:00;;;;;;;19.48;11.52;;;15.60;99.90;;;;;;5034898;28;20497;-75
2022/05/07 01:13:27;;;;;;;14.60;10.52;;;15.50;99.90;;;;;;5051583;28;20029;-73
2022/05/07 01:15:56;;;;;;;20.85;11.80;;;15.70;99.90;;;;;;5034861;28;20451;-77
2022/05/07 01:18:25;;;;;;;19.65;11.32;;;15.90;99.90;;;;;;5051596;28;20385;-77
2022/05/07 01:20:54;;;;;;;18.27;11.30;;;16.10;99.90;;;;;;5034798;28;20062;-77
2022/05/07 01:23:19;;;;;;;19.52;11.80;;;15.90;99.90;;;;;;5051439;28;20021;-77
2022/05/07 01:25:45;;;;;;;17.27;11.38;;;16.10;99.90;;;;;;5038940;28;20021;-78
2022/05/07 01:28:12;;;;;;;20.75;11.57;;;16.10;99.90;;;;;;5038841;28;20051;-77
2022/05/07 01:30:39;;;;;;;20.50;12.65;;;16.00;99.90;;;;;;5055508;28;20083;-78
2022/05/07 01:33:05;;;;;;;17.88;11.85;;;16.20;99.90;;;;;;5038625;28;20112;-78
2022/05/07 01:35:32;;;;;;;19.13;10.88;;;16.10;99.90;;;;;;5038723;28;20021;-77
2022/05/07 01:37:58;;;;;;;16.42;10.80;;;16.00;99.90;;;;;;5038555;28;20033;-73
2022/05/07 01:40:27;;;;;;;19.35;10.73;;;15.70;99.90;;;;;;5038715;28;20025;-77
2022/05/07 01:42:54;;;;;;;24.10;11.38;;;15.20;99.90;;;;;;5038843;28;20529;-78
2022/05/07 01:45:20;;;;;;;20.35;10.68;;;15.10;99.90;;;;;;5055277;28;20025;-74
2022/05/07 01:50:39;;;;;;;17.60;9.90;;;14.80;99.90;;;;;;5038504;28;20033;-78
2022/05/07 01:53:07;;;;;;;27.10;10.98;;;14.70;99.90;;;;;;5038157;28;20531;-78
2022/05/07 01:55:33;;;;;;;21.95;9.73;;;14.80;99.90;;;;;;5056326;28;20108;-76
2022/05/07 01:57:59;;;;;;;21.35;10.68;;;14.80;99.90;;;;;;5038299;28;20040;-78
2022/05/07 02:00:26;;;;;;;19.13;10.30;;;14.80;99.90;;;;;;5038821;28;20021;-78
2022/05/07 02:02:52;;;;;;;19.45;10.73;;;15.00;99.90;;;;;;5038027;28;20086;-78
2022/05/07 02:05:23;;;;;;;20.55;11.57;;;15.00;99.90;;;;;;5037989;28;20025;-78
2022/05/07 02:07:48;;;;;;;20.90;10.40;;;14.90;99.90;;;;;;5037774;28;20041;-78
2022/05/07 02:10:16;;;;;;;21.75;10.50;;;14.80;99.90;;;;;;5038252;28;20397;-76
2022/05/07 02:12:42;;;;;;;19.88;10.52;;;14.70;99.90;;;;;;5038122;28;20024;-77
2022/05/07 02:15:09;;;;;;;24.20;10.00;;;15.00;99.90;;;;;;5055972;28;20025;-78
2022/05/07 02:17:35;;;;;;;22.58;10.88;;;14.80;99.90;;;;;;5038090;28;20028;-77
2022/05/07 02:20:03;;;;;;;20.30;11.13;;;14.90;99.90;;;;;;5055371;28;20039;-78
2022/05/07 02:22:30;;;;;;;21.17;10.75;;;14.90;99.90;;;;;;5037972;28;20063;-78
2022/05/07 02:24:57;;;;;;;17.95;10.55;;;14.80;99.90;;;;;;5021572;28;20036;-78
2022/05/07 02:27:23;;;;;;;16.20;10.23;;;14.90;99.90;;;;;;5037695;28;20041;-78
2022/05/07 02:29:52;;;;;;;16.50;10.75;;;15.00;99.90;;;;;;5037731;28;20029;-77
2022/05/07 02:32:21;;;;;;;15.40;10.20;;;14.80;99.90;;;;;;5037656;28;20035;-78
2022/05/07 02:34:48;;;;;;;18.98;10.85;;;14.70;99.90;;;;;;5036959;28;20017;-78
2022/05/07 02:37:20;;;;;;;21.42;11.60;;;14.60;99.90;;;;;;5037343;28;20037;-78
2022/05/07 02:39:50;;;;;;;19.38;10.00;;;14.80;99.90;;;;;;5038292;28;20037;-78
2022/05/07 02:45:10;;;;;;;21.75;10.15;;;14.50;99.90;;;;;;5037610;28;20037;-78
2022/05/07 02:47:37;;;;;;;20.55;10.75;;;14.30;99.90;;;;;;5055155;28;20033;-78
2022/05/07 02:50:09;;;;;;;18.50;11.07;;;14.20;99.90;;;;;;5053779;28;20141;-77
2022/05/07 02:52:38;;;;;;;16.70;10.25;;;14.40;99.90;;;;;;5054149;28;20021;-77
2022/05/07 02:55:06;;;;;;;17.67;10.70;;;14.70;99.90;;;;;;5032797;28;20118;-78
2022/05/07 02:57:34;;;;;;;17.10;10.50;;;14.70;99.90;;;;;;5018075;28;20079;-78
2022/05/07 03:00:00;;;;;;;17.88;11.10;;;14.20;99.90;;;;;;5017245;28;20037;-78
2022/05/07 03:02:25;;;;;;;19.35;11.10;;;14.10;99.90;;;;;;5018330;28;20022;-78
2022/05/07 03:04:53;;;;;;;16.00;11.07;;;14.20;99.90;;;;;;5036718;28;20489;-78
2022/05/07 03:07:19;;;;;;;15.65;10.18;;;14.10;99.90;;;;;;5037048;28;20064;-78
2022/05/07 03:09:46;;;;;;;28.40;12.18;;;14.00;99.90;;;;;;5037061;28;20025;-78
2022/05/07 03:12:13;;;;;;;23.10;11.55;;;13.70;99.90;;;;;;5036809;28;20044;-77
2022/05/07 03:14:41;;;;;;;24.52;12.30;;;13.80;99.90;;;;;;5036955;28;20473;-78
2022/05/07 03:17:07;;;;;;;21.77;11.18;;;13.90;99.90;;;;;;5037036;28;20116;-78
2022/05/07 03:19:34;;;;;;;14.63;10.70;;;14.00;99.90;;;;;;5037060;28;20151;-78
2022/05/07 03:22:01;;;;;;;28.17;10.98;;;13.80;99.90;;;;;;5037203;28;20464;-77
2022/05/07 03:24:29;;;;;;;24.08;11.55;;;13.80;99.90;;;;;;5036747;28;20435;-78
2022/05/07 03:26:58;;;;;;;27.92;11.88;;;13.90;99.90;;;;;;5036662;28;20021;-77
2022/05/07 03:29:23;;;;;;;26.02;11.60;;;13.80;99.90;;;;;;5036673;28;20029;-75
2022/05/07 03:31:56;;;;;;;21.80;11.07;;;13.60;99.90;;;;;;5036826;28;20092;-77
2022/05/07 03:34:21;;;;;;;21.25;11.25;;;13.50;99.90;;;;;;5036025;28;20033;-76
2022/05/07 03:36:48;;;;;;;19.63;10.70;;;13.40;99.90;;;;;;5036726;28;20049;-77
2022/05/07 03:39:14;;;;;;;20.60;12.07;;;13.40;99.90;;;;;;5036367;28;20114;-77
2022/05/07 03:41:40;;;;;;;23.48;11.05;;;13.30;99.90;;;;;;5036687;28;20059;-77
2022/05/07 03:44:08;;;;;;;17.88;11.13;;;13.30;99.90;;;;;;5036233;28;20082;-76
2022/05/07 03:46:34;;;;;;;21.15;11.60;;;13.30;99.90;;;;;;5035971;28;20025;-77
2022/05/07 03:49:01;;;;;;;26.75;12.38;;;13.40;99.90;;;;;;5053911;28;20044;-77
2022/05/07 03:53:29;;;;;;;29.48;13.00;;;13.30;99.90;;;;;;5036352;28;20025;-77
2022/05/07 03:54:16;;;;;;;24.17;11.07;;;13.50;99.90;;;;;;5056996;28;20507;-77
2022/05/07 03:56:45;;;;;;;22.80;12.73;;;13.50;99.90;;;;;;5056374;28;20034;-77
2022/05/07 03:59:11;;;;;;;27.52;12.85;;;13.80;99.90;;;;;;5056072;28;20056;-77
2022/05/07 04:01:47;;;;;;;28.60;13.90;;;13.90;99.90;;;;;;5056149;28;20023;-78
2022/05/07 04:04:14;;;;;;;25.80;13.15;;;13.60;99.90;;;;;;5040139;28;20236;-77
2022/05/07 04:06:40;;;;;;;28.10;12.75;;;13.30;99.90;;;;;;5036488;28;20059;-77
2022/05/07 04:09:06;;;;;;;26.98;13.57;;;13.30;99.90;;;;;;5036263;28;20462;-77
2022/05/07 04:11:33;;;;;;;20.67;13.50;;;13.10;99.90;;;;;;5036274;28;20032;-78
2022/05/07 04:14:01;;;;;;;25.42;13.52;;;13.20;99.90;;;;;;5038198;28;20486;-77
2022/05/07 04:16:27;;;;;;;25.13;14.00;;;13.20;99.90;;;;;;5035957;28;20021;-78
2022/05/07 04:18:59;;;;;;;;;;;13.20;99.90;;;;;;5036344;28;20036;-78
2022/05/07 04:21:26;;;;;;;23.30;13.40;;;13.50;99.90;;;;;;5035790;28;19970;-77
2022/05/07 04:24:00;;;;;;;23.60;13.48;;;13.50;99.90;;;;;;5035850;28;20025;-77
2022/05/07 04:26:29;;;;;;;22.90;13.57;;;13.60;99.90;;;;;;5035646;28;20496;-76
2022/05/07 04:28:55;;;;;;;24.70;13.80;;;13.50;99.90;;;;;;5035731;28;20033;-77
2022/05/07 04:31:23;;;;;;;34.45;14.38;;;13.30;99.90;;;;;;5035120;28;20028;-77
2022/05/07 04:33:56;;;;;;;30.63;15.10;;;13.40;99.90;;;;;;5035659;28;20543;-77
2022/05/07 04:36:22;;;;;;;28.30;14.70;;;13.30;99.90;;;;;;5035559;28;20032;-77
2022/05/07 04:38:48;;;;;;;24.98;14.30;;;13.30;99.90;;;;;;5053428;28;20017;-77
2022/05/07 04:41:21;;;;;;;33.58;15.18;;;13.20;99.90;;;;;;5035258;28;20024;-78
2022/05/07 04:43:48;;;;;;;22.98;14.80;;;13.20;99.90;;;;;;5035386;28;20025;-78
2022/05/07 04:46:17;;;;;;;26.42;15.00;;;13.50;99.90;;;;;;5034723;28;20581;-78
2022/05/07 04:48:48;;;;;;;30.02;16.35;;;13.50;99.90;;;;;;5035284;28;20069;-78
2022/05/07 04:51:14;;;;;;;28.30;15.73;;;13.80;99.90;;;;;;5051723;28;20087;-78
2022/05/07 04:53:48;;;;;;;33.80;15.52;;;14.00;99.90;;;;;;5035320;28;20082;-78
2022/05/07 04:56:22;;;;;;;33.38;17.65;;;14.20;99.90;;;;;;5034877;28;20028;-78
2022/05/07 04:58:57;;;;;;;24.50;15.00;;;13.80;99.90;;;;;;5034546;28;20535;-78
2022/05/07 05:01:30;;;;;;;28.38;16.17;;;13.40;99.90;;;;;;5034907;28;20060;-78
2022/05/07 05:03:57;;;;;;;32.30;16.73;;;13.30;99.90;;;;;;5052753;28;20028;-78
2022/05/07 05:06:27;;;;;;;31.70;16.77;;;13.40;99.90;;;;;;5034810;28;20123;-78
2022/05/07 05:08:59;;;;;;;29.20;16.02;;;13.70;99.90;;;;;;5034863;28;20041;-78
2022/05/07 05:11:25;;;;;;;35.90;16.92;;;13.80;99.90;;;;;;5052727;28;20029;-78
2022/05/07 05:13:52;;;;;;;37.83;18.13;;;13.60;99.90;;;;;;5018889;28;20024;-78
2022/05/07 05:16:19;;;;;;;33.08;17.63;;;13.40;99.90;;;;;;5034574;28;20025;-77
2022/05/07 05:18:47;;;;;;;34.60;17.85;;;13.40;99.90;;;;;;5034828;28;20025;-77
2022/05/07 05:21:18;;;;;;;29.45;17.05;;;13.40;99.90;;;;;;5034354;28;20017;-78
2022/05/07 05:23:52;;;;;;;32.70;18.38;;;13.60;99.90;;;;;;5034975;28;20394;-78
2022/05/07 05:26:18;;;;;;;33.42;19.67;;;13.70;99.90;;;;;;5034703;28;20025;-78
2022/05/07 05:28:51;;;;;;;37.07;18.30;;;13.70;99.90;;;;;;5034331;28;20043;-78
2022/05/07 05:31:18;;;;;;;34.05;18.08;;;13.40;99.90;;;;;;5034518;28;20086;-78
2022/05/07 05:33:50;;;;;;;37.10;19.50;;;13.50;99.90;;;;;;5034715;28;20025;-78
2022/05/07 05:36:30;;;;;;;42.10;19.33;;;13.60;99.90;;;;;;5034867;28;20025;-77
2022/05/07 05:38:56;;;;;;;35.42;18.60;;;13.90;99.90;;;;;;5035048;28;20163;-76
2022/05/07 05:41:25;;;;;;;43.78;18.60;;;13.90;99.90;;;;;;5034488;28;20053;-78
2022/05/07 05:43:52;;;;;;;32.50;18.83;;;14.10;99.90;;;;;;5034418;28;20028;-78
2022/05/07 05:46:18;;;;;;;43.13;21.08;;;14.10;99.90;;;;;;5018178;28;20043;-78
2022/05/07 05:48:46;;;;;;;34.22;18.88;;;14.20;99.90;;;;;;5034513;28;20401;-77
2022/05/07 05:51:12;;;;;;;36.33;18.73;;;14.00;99.90;;;;;;5018073;28;20029;-77
2022/05/07 05:53:42;;;;;;;36.28;20.30;;;14.40;99.90;;;;;;5034665;28;20086;-78
2022/05/07 05:56:11;;;;;;;38.33;18.23;;;14.80;99.90;;;;;;5051195;28;20501;-77
2022/05/07 05:58:42;;;;;;;30.80;17.40;;;14.60;99.90;;;;;;5034423;28;20078;-79
2022/05/07 06:01:09;;;;;;;44.83;20.60;;;14.00;99.90;;;;;;5053798;28;20100;-78
2022/05/07 06:03:46;;;;;;;37.40;21.15;;;13.60;99.90;;;;;;5052613;28;20029;-79
2022/05/07 06:06:15;;;;;;;40.67;20.00;;;13.60;99.90;;;;;;5050688;28;20056;-77
2022/05/07 06:08:42;;;;;;;33.53;18.38;;;13.80;99.90;;;;;;5025490;28;20044;-76
2022/05/07 06:11:08;;;;;;;37.80;19.05;;;14.30;99.90;;;;;;5019431;28;20025;-78
2022/05/07 06:13:34;;;;;;;34.42;19.20;;;14.40;99.90;;;;;;5027337;28;20112;-78
2022/05/07 06:16:00;;;;;;;35.22;18.67;;;14.30;99.90;;;;;;5036379;28;20136;-79
2022/05/07 06:18:26;;;;;;;38.97;19.33;;;14.20;99.90;;;;;;5037145;28;20037;-77
2022/05/07 06:21:01;;;;;;;;;;;14.30;99.90;;;;;;5020512;28;20028;-79
2022/05/07 06:23:29;;;;;;;35.03;17.05;;;14.40;99.90;;;;;;5030606;28;20019;-78
2022/05/07 06:28:41;;;;;;;34.78;19.08;;;14.70;99.90;;;;;;5020395;28;20135;-74
2022/05/07 06:31:09;;;;;;;35.08;18.58;;;14.30;99.90;;;;;;5038964;28;20035;-79
2022/05/07 06:33:37;;;;;;;36.55;19.08;;;14.20;99.90;;;;;;5029525;28;20032;-78
2022/05/07 06:36:07;;;;;;;36.50;19.58;;;14.40;99.90;;;;;;5046453;28;20075;-78
2022/05/07 06:38:37;;;;;;;42.03;20.45;;;14.70;99.90;;;;;;5032012;28;20519;-77
2022/05/07 06:41:06;;;;;;;32.88;17.85;;;14.90;99.90;;;;;;5020422;28;20449;-76
2022/05/07 06:43:35;;;;;;;28.45;18.27;;;15.20;99.90;;;;;;5029355;28;20022;-77
2022/05/07 06:46:14;;;;;;;40.83;19.52;;;15.50;99.90;;;;;;5022414;28;20195;-76
2022/05/07 06:48:52;;;;;;;37.30;18.00;;;15.40;99.90;;;;;;5035070;28;20124;-76
2022/05/07 06:51:25;;;;;;;36.03;19.15;;;15.10;99.90;;;;;;5018187;28;20025;-76
2022/05/07 06:53:51;;;;;;;37.17;18.70;;;14.80;99.90;;;;;;5054070;28;20032;-77
2022/05/07 06:56:16;;;;;;;33.55;19.33;;;14.80;99.90;;;;;;5053809;28;20090;-78
2022/05/07 06:58:42;;;;;;;35.95;19.52;;;15.00;99.90;;;;;;5054243;28;20066;-77
2022/05/07 07:01:08;;;;;;;31.42;17.70;;;15.30;99.90;;;;;;5052477;28;20122;-78
2022/05/07 07:03:34;;;;;;;34.58;19.23;;;15.40;99.90;;;;;;5054403;28;20426;-78
2022/05/07 07:06:00;;;;;;;43.75;19.52;;;15.50;99.90;;;;;;5054283;28;20028;-77
2022/05/07 07:08:29;;;;;;;41.10;20.25;;;15.60;99.90;;;;;;5048849;28;20045;-78
2022/05/07 07:10:55;;;;;;;36.25;19.25;;;15.80;99.90;;;;;;5034469;28;20028;-79
2022/05/07 07:13:21;;;;;;;30.88;17.67;;;16.20;99.90;;;;;;5039932;28;20029;-78
2022/05/07 07:15:48;;;;;;;38.42;18.30;;;15.90;99.90;;;;;;5045044;28;20493;-78
2022/05/07 07:18:14;;;;;;;36.63;18.88;;;15.90;99.90;;;;;;5047140;28;20539;-77
2022/05/07 07:20:41;;;;;;;37.13;18.50;;;16.00;99.90;;;;;;5037609;28;20193;-77
2022/05/07 07:23:11;;;;;;;39.95;19.50;;;15.80;99.90;;;;;;5021984;28;20025;-78
2022/05/07 07:25:41;;;;;;;35.08;18.10;;;15.90;99.90;;;;;;5071490;28;20032;-78
2022/05/07 07:28:08;;;;;;;36.85;18.95;;;16.10;99.90;;;;;;5070318;28;20729;-78
2022/05/07 07:30:35;;;;;;;35.08;19.40;;;16.40;99.90;;;;;;5063827;28;20478;-78
2022/05/07 07:33:01;;;;;;;36.05;18.48;;;16.70;99.90;;;;;;5058500;28;20028;-78
2022/05/07 07:35:27;;;;;;;34.47;16.77;;;16.40;99.90;;;;;;5054032;28;20457;-76
2022/05/07 07:37:53;;;;;;;42.42;20.15;;;16.80;99.90;;;;;;5057111;28;20087;-77
2022/05/07 07:40:19;;;;;;;33.60;17.48;;;17.20;99.90;;;;;;5053576;28;20025;-79
2022/05/07 07:42:44;;;;;;;36.10;17.92;;;17.50;99.90;;;;;;5037425;28;20099;-77
2022/05/07 07:47:57;;;;;;;40.67;18.20;;;17.80;99.90;;;;;;5053912;28;20572;-78
2022/05/07 07:50:24;;;;;;;74.05;34.85;;;17.90;99.90;;;;;;5053639;28;20100;-78
2022/05/07 07:53:01;;;;;;;40.10;18.42;;;17.80;99.90;;;;;;5043977;28;20366;-78
2022/05/07 07:55:27;;;;;;;35.25;18.35;;;17.70;99.90;;;;;;5039655;28;20381;-77
2022/05/07 07:57:57;;;;;;;35.38;16.52;;;18.20;99.90;;;;;;5043673;28;20037;-78
2022/05/07 08:00:24;;;;;;;37.53;17.50;;;18.70;99.90;;;;;;5033498;28;20115;-76
2022/05/07 08:02:55;;;;;;;32.83;16.48;;;19.40;99.90;;;;;;5054513;28;20013;-74
2022/05/07 08:05:23;;;;;;;33.55;17.77;;;19.50;99.90;;;;;;5053462;28;20382;-76
2022/05/07 08:13:19;;;;;;;23.65;15.07;;;19.00;99.90;;;;;;5038668;28;20033;-79
2022/05/07 08:15:46;;;;;;;29.90;16.95;;;18.90;99.90;;;;;;5044436;28;20104;-79
2022/05/07 08:18:12;;;;;;;26.25;14.57;;;19.00;99.90;;;;;;5005638;28;20087;-80
2022/05/07 08:20:38;;;;;;;29.27;15.30;;;19.30;99.90;;;;;;5037870;28;20048;-79
2022/05/07 08:23:05;;;;;;;35.22;15.27;;;18.40;99.90;;;;;;5058794;28;20043;-79
2022/05/07 08:25:30;;;;;;;30.05;16.20;;;18.50;99.90;;;;;;5057150;28;20044;-79
2022/05/07 08:27:56;;;;;;;30.92;15.70;;;18.80;99.90;;;;;;5071805;28;20464;-79
2022/05/07 08:30:22;;;;;;;33.13;16.33;;;18.90;99.90;;;;;;5071260;28;20093;-78
2022/05/07 08:32:48;;;;;;;33.83;17.33;;;19.20;99.90;;;;;;5072903;28;20025;-80
2022/05/07 08:35:13;;;;;;;30.65;17.08;;;19.60;99.90;;;;;;5071940;28;20017;-78
2022/05/07 08:37:39;;;;;;;33.50;17.10;;;20.00;99.90;;;;;;5071868;28;20037;-79
2022/05/07 08:40:05;;;;;;;35.55;15.98;;;20.20;99.90;;;;;;5055306;28;20032;-78
2022/05/07 08:42:31;;;;;;;33.83;16.58;;;20.30;99.90;;;;;;5073265;28;20115;-78
2022/05/07 08:44:57;;;;;;;34.10;18.15;;;19.00;99.90;;;;;;5073301;28;20055;-79
2022/05/07 08:47:26;;;;;;;34.88;16.70;;;18.90;99.90;;;;;;5043905;28;20062;-79
2022/05/07 08:49:52;;;;;;;36.58;16.63;;;19.60;99.90;;;;;;5050187;28;20029;-79
2022/05/07 08:52:19;;;;;;;32.72;17.42;;;19.70;99.90;;;;;;5046175;28;20492;-78
2022/05/07 08:54:48;;;;;;;29.48;15.93;;;19.70;99.90;;;;;;5038424;28;20053;-79
2022/05/07 08:57:14;;;;;;;27.48;15.60;;;20.00;99.90;;;;;;5015595;28;20064;-79
2022/05/07 08:59:42;;;;;;;24.00;13.70;;;20.10;99.90;;;;;;5040203;28;20067;-79
2022/05/07 09:02:08;;;;;;;27.75;13.35;;;20.50;99.90;;;;;;5041018;28;20493;-80
2022/05/07 09:04:36;;;;;;;32.00;13.82;;;20.30;99.90;;;;;;5051079;28;20120;-80
2022/05/07 09:07:05;;;;;;;29.30;14.82;;;20.40;99.90;;;;;;5017657;28;20116;-79
2022/05/07 09:09:31;;;;;;;25.02;13.82;;;20.10;99.90;;;;;;5046364;28;20048;-79
2022/05/07 09:11:58;;;;;;;21.45;12.73;;;20.00;99.90;;;;;;5042096;28;20025;-79
2022/05/07 09:14:31;;;;;;;29.15;14.25;;;20.20;99.90;;;;;;5039021;28;20025;-79
2022/05/07 09:17:00;;;;;;;27.90;12.70;;;20.20;99.90;;;;;;5030867;28;20028;-80
2022/05/07 09:19:30;;;;;;;19.35;12.00;;;20.40;99.90;;;;;;5038022;28;20541;-79
2022/05/07 09:22:10;;;;;;;19.58;11.40;;;20.10;99.90;;;;;;5042096;28;20113;-80
2022/05/07 09:24:37;;;;;;;20.02;10.43;;;20.20;99.90;;;;;;5047474;28;20389;-79
2022/05/07 09:27:04;;;;;;;16.13;8.57;;;20.90;99.90;;;;;;5035479;28;20048;-79
2022/05/07 09:29:32;;;;;;;17.27;8.77;;;21.00;99.90;;;;;;5057867;28;20032;-79
2022/05/07 09:32:09;;;;;;;15.75;7.70;;;21.20;99.90;;;;;;5062153;28;20029;-80
2022/05/07 09:37:41;;;;;;;15.52;8.80;;;21.40;98.80;;;;;;5039501;28;20162;-79
2022/05/07 09:40:12;;;;;;;18.40;9.13;;;20.80;99.90;;;;;;5040858;28;20057;-80
2022/05/07 09:42:39;;;;;;;14.23;8.13;;;20.60;99.90;;;;;;5047501;28;20036;-79
2022/05/07 09:45:07;;;;;;;16.30;8.13;;;20.70;99.90;;;;;;5019681;28;20077;-80
2022/05/07 09:47:33;;;;;;;17.42;8.68;;;20.30;99.90;;;;;;5049795;28;20049;-80
2022/05/07 09:58:17;;;;;;;16.17;7.68;;;20.20;99.90;;;;;;5043204;28;20033;-78
2022/05/07 10:01:16;;;;;;;11.60;7.65;;;20.40;99.90;;;;;;5052012;28;20036;-80
2022/05/07 10:04:06;;;;;;;16.52;8.25;;;20.30;99.90;;;;;;5046991;28;20485;-76
2022/05/07 10:06:55;;;;;;;16.20;7.25;;;20.60;99.90;;;;;;5055673;28;20029;-79
2022/05/07 10:09:56;;;;;;;13.10;7.32;;;20.40;99.90;;;;;;5040500;28;20142;-78
2022/05/07 10:12:24;;;;;;;12.70;6.55;;;20.20;99.90;;;;;;5019458;28;20398;-78
2022/05/07 10:14:50;;;;;;;13.25;6.90;;;20.30;99.90;;;;;;5052291;28;20024;-77
2022/05/07 10:17:21;;;;;;;15.85;7.18;;;20.40;99.90;;;;;;5039666;28;20033;-79
2022/05/07 10:19:49;;;;;;;19.30;7.53;;;20.80;99.90;;;;;;5054625;28;20032;-79
2022/05/07 10:22:21;;;;;;;12.77;7.97;;;21.20;99.90;;;;;;5054172;28;20014;-78
2022/05/07 10:24:49;;;;;;;15.30;7.68;;;21.80;99.80;;;;;;5038141;28;20037;-78
2022/05/07 10:27:44;;;;;;;20.58;8.45;;;22.20;99.10;;;;;;5056009;28;20029;-77
2022/05/07 10:30:21;;;;;;;16.67;7.85;;;21.90;99.90;;;;;;5036238;28;20141;-79
2022/05/07 10:33:03;;;;;;;17.02;8.23;;;22.40;98.40;;;;;;5055699;28;20028;-78
2022/05/07 10:35:42;;;;;;;13.27;6.90;;;21.50;99.60;;;;;;5055932;28;20591;-78
2022/05/07 10:38:10;;;;;;;13.82;7.53;;;21.90;98.90;;;;;;5063523;28;20461;-79
2022/05/07 10:40:36;;;;;;;15.35;7.78;;;21.50;99.60;;;;;;5075649;28;20039;-79
2022/05/07 10:43:03;;;;;;;11.80;7.28;;;21.70;99.90;;;;;;5075439;28;20028;-79
2022/05/07 10:45:40;;;;;;;11.88;7.38;;;22.00;99.40;;;;;;5075540;28;20465;-79
2022/05/07 10:48:17;;;;;;;16.17;8.32;;;22.00;99.40;;;;;;5057593;28;20049;-79
2022/05/07 10:50:51;;;;;;;12.60;7.53;;;21.70;99.40;;;;;;5055390;28;20027;-79
2022/05/07 10:53:17;;;;;;;11.68;7.22;;;21.70;99.60;;;;;;5055178;28;20067;-78
2022/05/07 10:55:42;;;;;;;14.90;7.70;;;21.30;99.60;;;;;;5055158;28;20136;-79
2022/05/07 10:58:08;;;;;;;10.38;7.38;;;21.40;99.90;;;;;;5054292;28;20032;-79
2022/05/07 11:00:35;;;;;;;11.70;6.80;;;21.50;99.60;;;;;;5055043;28;20426;-79
2022/05/07 11:03:00;;;;;;;16.17;8.38;;;21.70;99.70;;;;;;5054523;28;20535;-80
2022/05/07 11:05:34;;;;;;;11.63;8.20;;;21.20;99.70;;;;;;5037053;28;20037;-79
2022/05/07 11:08:02;;;;;;;15.60;8.23;;;21.60;99.90;;;;;;5054851;28;20092;-79
2022/05/07 11:10:30;;;;;;;11.55;8.40;;;21.80;99.40;;;;;;5054864;28;20025;-79
2022/05/07 11:13:09;;;;;;;14.85;8.95;;;21.70;99.40;;;;;;5054884;28;20020;-79
2022/05/07 11:15:35;;;;;;;13.52;8.95;;;21.60;99.40;;;;;;5054978;28;20041;-79
2022/05/07 11:18:12;;;;;;;15.52;9.52;;;21.80;99.20;;;;;;5054215;28;20025;-79
2022/05/07 11:20:38;;;;;;;16.65;9.10;;;21.50;99.50;;;;;;5053950;28;20549;-75
2022/05/07 11:23:04;;;;;;;18.95;9.95;;;22.00;99.90;;;;;;5040173;28;20115;-79
2022/05/07 11:25:30;;;;;;;17.35;9.18;;;22.10;98.90;;;;;;5037237;28;20033;-78
2022/05/07 11:27:57;;;;;;;12.02;8.82;;;22.20;99.80;;;;;;5049267;28;20041;-79
2022/05/07 11:30:24;;;;;;;13.40;8.65;;;22.20;99.20;;;;;;5071669;28;20020;-79
2022/05/07 11:32:50;;;;;;;13.05;8.40;;;22.50;97.50;;;;;;5055151;28;20032;-79
2022/05/07 11:35:16;;;;;;;15.35;8.30;;;22.40;98.10;;;;;;5059046;28;20020;-79
2022/05/07 11:37:46;;;;;;;15.10;8.93;;;22.40;98.00;;;;;;5056223;28;20135;-79
2022/05/07 11:40:26;;;;;;;17.27;9.10;;;21.90;98.70;;;;;;5050121;28;20029;-79
2022/05/07 11:45:25;;;;;;;16.85;9.63;;;22.20;98.70;;;;;;5046768;28;20364;-78
2022/05/07 11:45:38;;;;;;;13.25;9.10;;;21.80;99.50;;;;;;5056276;28;20048;-79
2022/05/07 11:48:09;;;;;;;18.05;11.10;;;22.30;98.80;;;;;;5041032;28;20037;-79
2022/05/07 11:50:42;;;;;;;;;;;22.00;98.40;;;;;;5045993;28;20033;-79
2022/05/07 11:53:15;;;;;;;21.83;9.98;;;22.20;98.30;;;;;;5046485;28;19909;-79
2022/05/07 11:55:43;;;;;;;16.77;9.80;;;22.60;98.10;;;;;;5037081;28;20048;-79
2022/05/07 11:58:17;;;;;;;15.32;9.90;;;22.80;97.80;;;;;;5024669;28;20094;-79
2022/05/07 12:00:47;;;;;;;17.02;9.20;;;23.30;96.20;;;;;;5056862;28;20033;-79
2022/05/07 12:03:23;;;;;;;16.48;8.68;;;23.20;96.30;;;;;;5060628;28;20018;-79
2022/05/07 12:05:51;;;;;;;14.27;8.63;;;23.30;95.80;;;;;;5063704;28;20120;-79
2022/05/07 12:08:25;;;;;;;13.02;8.48;;;23.70;95.10;;;;;;5067471;28;20048;-79
2022/05/07 12:10:53;;;;;;;12.68;7.90;;;23.30;96.00;;;;;;5058359;28;20090;-79
2022/05/07 12:13:21;;;;;;;14.13;8.68;;;23.80;95.80;;;;;;5053801;28;20462;-79
2022/05/07 12:18:34;;;;;;;12.45;7.55;;;23.60;94.70;;;;;;5049571;28;20513;-79
2022/05/07 12:21:00;;;;;;;11.55;8.45;;;23.60;94.40;;;;;;5053400;28;20047;-79
2022/05/07 12:31:39;;;;;;;16.90;10.00;;;23.50;95.90;;;;;;5052193;28;20060;-79
2022/05/07 12:34:04;;;;;;;18.13;9.02;;;23.00;94.90;;;;;;5053151;28;20484;-79
2022/05/07 12:36:31;;;;;;;14.35;9.52;;;23.40;94.80;;;;;;5016527;28;20422;-77
2022/05/07 12:38:59;;;;;;;13.27;8.20;;;24.00;94.10;;;;;;5043578;28;20029;-79
2022/05/07 12:41:31;;;;;;;16.50;9.82;;;24.00;93.80;;;;;;5053800;28;20035;-79
2022/05/07 12:44:00;;;;;;;12.65;8.82;;;23.20;94.30;;;;;;5057886;28;20021;-78
2022/05/07 12:46:27;;;;;;;18.65;10.43;;;23.30;94.90;;;;;;5064868;28;20025;-78
2022/05/07 12:48:55;;;;;;;17.38;10.65;;;24.10;94.70;;;;;;5054354;28;20044;-79
2022/05/07 12:51:21;;;;;;;18.38;10.00;;;24.20;93.90;;;;;;5052598;28;20013;-79
2022/05/07 12:53:49;;;;;;;14.38;9.20;;;23.90;93.70;;;;;;5068716;28;20037;-78
2022/05/07 12:56:14;;;;;;;17.05;11.30;;;24.10;94.00;;;;;;5044806;28;20028;-77
2022/05/07 12:58:40;;;;;;;23.95;12.73;;;24.10;94.20;;;;;;5052939;28;20029;-78
2022/05/07 13:01:06;;;;;;;16.38;11.77;;;24.00;94.10;;;;;;5071632;28;20440;-78
2022/05/07 13:03:32;;;;;;;16.85;11.23;;;23.80;94.00;;;;;;5052197;28;20036;-79
2022/05/07 13:05:58;;;;;;;15.80;10.38;;;23.50;94.20;;;;;;5072705;28;20024;-79
2022/05/07 13:08:23;;;;;;;16.88;9.88;;;23.80;94.50;;;;;;5071751;28;20485;-79
2022/05/07 13:10:49;;;;;;;13.15;7.82;;;24.90;93.40;;;;;;5055148;28;20035;-79
2022/05/07 13:13:18;;;;;;;17.85;9.38;;;25.80;91.90;;;;;;5053733;28;20052;-78
2022/05/07 13:15:44;;;;;;;11.65;6.80;;;25.30;92.10;;;;;;5072977;28;20024;-79
2022/05/07 13:18:10;;;;;;;9.98;7.18;;;25.00;91.70;;;;;;5054597;28;20492;-79
2022/05/07 13:20:38;;;;;;;15.85;8.60;;;24.50;92.40;;;;;;5072348;28;20024;-78
2022/05/07 13:23:04;;;;;;;15.13;9.35;;;26.00;92.30;;;;;;5072657;28;20064;-78